sensor_id;sensor_type;location;lat;lon;timestamp;pressure;altitude;pressure_sealevel;temperature;humidity
49943;BME280;36011;53.362;58.948;2023-01-01T00:01:11;97875.50;;;-17.81;54.11
49943;BME280;36011;53.362;58.948;2023-01-01T00:04:13;97877.16;;;-17.81;54.02
49943;BME280;36011;53.362;58.948;2023-01-01T00:07:14;97875.31;;;-17.84;54.12
49943;BME280;36011;53.362;58.948;2023-01-01T00:10:17;97868.56;;;-17.85;54.25
49943;BME280;36011;53.362;58.948;2023-01-01T00:13:30;97871.84;;;-17.86;54.32
49943;BME280;36011;53.362;58.948;2023-01-01T00:16:31;97863.53;;;-17.85;54.01
49943;BME280;36011;53.362;58.948;2023-01-01T00:19:32;97856.97;;;-17.83;53.94
49943;BME280;36011;53.362;58.948;2023-01-01T00:22:33;97863.44;;;-17.72;54.29
49943;BME280;36011;53.362;58.948;2023-01-01T00:25:37;97856.31;;;-17.66;54.30
49943;BME280;36011;53.362;58.948;2023-01-01T00:28:39;97855.13;;;-17.57;53.95
49943;BME280;36011;53.362;58.948;2023-01-01T00:31:43;97845.06;;;-17.57;54.05
49943;BME280;36011;53.362;58.948;2023-01-01T00:34:47;97840.03;;;-17.57;54.03
49943;BME280;36011;53.362;58.948;2023-01-01T00:37:48;97833.25;;;-17.58;54.18
49943;BME280;36011;53.362;58.948;2023-01-01T00:40:49;97849.69;;;-17.63;54.08
49943;BME280;36011;53.362;58.948;2023-01-01T00:43:50;97842.84;;;-17.66;54.12
49943;BME280;36011;53.362;58.948;2023-01-01T00:46:51;97835.69;;;-17.60;54.17
49943;BME280;36011;53.362;58.948;2023-01-01T00:49:52;97845.25;;;-17.54;53.93
49943;BME280;36011;53.362;58.948;2023-01-01T00:52:53;97838.09;;;-17.61;53.85
49943;BME280;36011;53.362;58.948;2023-01-01T00:55:57;97849.88;;;-17.60;54.26
49943;BME280;36011;53.362;58.948;2023-01-01T00:59:00;97844.94;;;-17.59;54.04
49943;BME280;36011;53.362;58.948;2023-01-01T01:02:04;97850.66;;;-17.61;54.29
49943;BME280;36011;53.362;58.948;2023-01-01T01:05:05;97841.06;;;-17.54;54.19
49943;BME280;36011;53.362;58.948;2023-01-01T01:08:08;97845.78;;;-17.45;54.12
49943;BME280;36011;53.362;58.948;2023-01-01T01:11:11;97838.84;;;-17.34;53.99
49943;BME280;36011;53.362;58.948;2023-01-01T01:14:15;97832.97;;;-17.35;53.92
49943;BME280;36011;53.362;58.948;2023-01-01T01:17:18;97836.25;;;-17.36;53.75
49943;BME280;36011;53.362;58.948;2023-01-01T01:20:22;97833.72;;;-17.36;53.79
49943;BME280;36011;53.362;58.948;2023-01-01T01:23:26;97839.38;;;-17.40;53.92
49943;BME280;36011;53.362;58.948;2023-01-01T01:26:30;97845.09;;;-17.42;53.77
49943;BME280;36011;53.362;58.948;2023-01-01T01:29:31;97847.78;;;-17.39;54.07
49943;BME280;36011;53.362;58.948;2023-01-01T01:32:35;97851.50;;;-17.33;54.00
49943;BME280;36011;53.362;58.948;2023-01-01T01:35:38;97839.03;;;-17.31;53.99
49943;BME280;36011;53.362;58.948;2023-01-01T01:38:39;97840.06;;;-17.28;53.76
49943;BME280;36011;53.362;58.948;2023-01-01T01:41:44;97848.31;;;-17.15;53.99
49943;BME280;36011;53.362;58.948;2023-01-01T01:47:57;97839.31;;;-16.97;53.69
49943;BME280;36011;53.362;58.948;2023-01-01T01:50:58;97835.25;;;-16.95;53.51
49943;BME280;36011;53.362;58.948;2023-01-01T01:54:03;97836.19;;;-16.93;53.35
49943;BME280;36011;53.362;58.948;2023-01-01T01:57:05;97832.28;;;-16.88;53.47
49943;BME280;36011;53.362;58.948;2023-01-01T02:00:08;97830.22;;;-16.95;53.47
49943;BME280;36011;53.362;58.948;2023-01-01T02:03:12;97842.38;;;-17.03;53.42
49943;BME280;36011;53.362;58.948;2023-01-01T02:06:16;97831.41;;;-17.18;53.55
49943;BME280;36011;53.362;58.948;2023-01-01T02:09:19;97826.19;;;-17.36;53.61
49943;BME280;36011;53.362;58.948;2023-01-01T02:12:20;97829.88;;;-17.44;53.96
49943;BME280;36011;53.362;58.948;2023-01-01T02:15:25;97829.47;;;-17.52;54.01
49943;BME280;36011;53.362;58.948;2023-01-01T02:21:53;97835.75;;;-17.58;53.96
49943;BME280;36011;53.362;58.948;2023-01-01T02:31:23;97822.31;;;-17.59;53.85
49943;BME280;36011;53.362;58.948;2023-01-01T02:34:30;97819.13;;;-17.56;53.86
49943;BME280;36011;53.362;58.948;2023-01-01T02:37:35;97820.94;;;-17.54;53.87
49943;BME280;36011;53.362;58.948;2023-01-01T02:40:39;97829.06;;;-17.58;53.68
49943;BME280;36011;53.362;58.948;2023-01-01T02:43:42;97819.13;;;-17.56;53.68
49943;BME280;36011;53.362;58.948;2023-01-01T02:46:46;97827.81;;;-17.51;53.65
49943;BME280;36011;53.362;58.948;2023-01-01T02:49:49;97822.00;;;-17.50;53.36
49943;BME280;36011;53.362;58.948;2023-01-01T03:02:42;97817.16;;;-17.32;53.26
49943;BME280;36011;53.362;58.948;2023-01-01T03:09:24;97815.09;;;-17.25;53.30
49943;BME280;36011;53.362;58.948;2023-01-01T03:22:15;97805.72;;;-17.12;53.33
49943;BME280;36011;53.362;58.948;2023-01-01T03:25:23;97804.34;;;-17.07;53.24
49943;BME280;36011;53.362;58.948;2023-01-01T03:28:30;97807.03;;;-17.04;53.14
49943;BME280;36011;53.362;58.948;2023-01-01T03:31:33;97801.22;;;-17.03;53.31
49943;BME280;36011;53.362;58.948;2023-01-01T03:34:36;97790.81;;;-17.09;53.42
49943;BME280;36011;53.362;58.948;2023-01-01T03:37:41;97788.09;;;-17.12;53.43
49943;BME280;36011;53.362;58.948;2023-01-01T03:40:47;97785.78;;;-17.09;53.47
49943;BME280;36011;53.362;58.948;2023-01-01T03:43:55;97789.16;;;-17.09;53.36
49943;BME280;36011;53.362;58.948;2023-01-01T03:47:02;97795.84;;;-17.09;53.20
49943;BME280;36011;53.362;58.948;2023-01-01T03:50:05;97789.25;;;-17.07;53.58
49943;BME280;36011;53.362;58.948;2023-01-01T03:53:09;97791.75;;;-17.07;53.53
49943;BME280;36011;53.362;58.948;2023-01-01T03:56:16;97799.94;;;-17.11;53.41
49943;BME280;36011;53.362;58.948;2023-01-01T03:59:23;97792.91;;;-17.17;53.67
49943;BME280;36011;53.362;58.948;2023-01-01T04:02:30;97790.09;;;-17.22;53.65
49943;BME280;36011;53.362;58.948;2023-01-01T04:05:35;97788.09;;;-17.27;53.87
49943;BME280;36011;53.362;58.948;2023-01-01T04:08:39;97782.03;;;-17.31;53.67
49943;BME280;36011;53.362;58.948;2023-01-01T04:11:43;97787.69;;;-17.35;53.78
49943;BME280;36011;53.362;58.948;2023-01-01T04:15:01;97785.75;;;-17.39;53.72
49943;BME280;36011;53.362;58.948;2023-01-01T04:18:05;97789.06;;;-17.40;54.12
49943;BME280;36011;53.362;58.948;2023-01-01T04:21:06;97789.06;;;-17.40;54.04
49943;BME280;36011;53.362;58.948;2023-01-01T04:24:08;97781.59;;;-17.38;54.00
49943;BME280;36011;53.362;58.948;2023-01-01T04:27:09;97773.28;;;-17.37;54.01
49943;BME280;36011;53.362;58.948;2023-01-01T04:30:11;97779.19;;;-17.37;54.24
49943;BME280;36011;53.362;58.948;2023-01-01T04:33:12;97776.22;;;-17.30;54.26
49943;BME280;36011;53.362;58.948;2023-01-01T04:36:16;97778.72;;;-17.30;54.02
49943;BME280;36011;53.362;58.948;2023-01-01T04:39:22;97778.16;;;-17.26;54.18
49943;BME280;36011;53.362;58.948;2023-01-01T04:42:26;97778.31;;;-17.23;54.11
49943;BME280;36011;53.362;58.948;2023-01-01T04:45:31;97775.19;;;-17.18;54.12
49943;BME280;36011;53.362;58.948;2023-01-01T04:48:35;97777.28;;;-17.11;54.25
49943;BME280;36011;53.362;58.948;2023-01-01T04:51:41;97770.41;;;-16.99;53.99
49943;BME280;36011;53.362;58.948;2023-01-01T04:54:45;97772.03;;;-16.85;53.96
49943;BME280;36011;53.362;58.948;2023-01-01T04:57:48;97766.88;;;-16.71;53.98
49943;BME280;36011;53.362;58.948;2023-01-01T05:00:49;97764.41;;;-16.55;53.86
49943;BME280;36011;53.362;58.948;2023-01-01T05:03:51;97756.88;;;-16.39;53.62
49943;BME280;36011;53.362;58.948;2023-01-01T05:06:54;97760.13;;;-16.25;53.74
49943;BME280;36011;53.362;58.948;2023-01-01T05:09:57;97755.66;;;-16.14;53.50
49943;BME280;36011;53.362;58.948;2023-01-01T05:12:58;97762.28;;;-16.00;53.60
49943;BME280;36011;53.362;58.948;2023-01-01T05:16:03;97770.66;;;-15.85;53.50
49943;BME280;36011;53.362;58.948;2023-01-01T05:19:05;97762.22;;;-15.69;53.66
49943;BME280;36011;53.362;58.948;2023-01-01T05:22:08;97759.75;;;-15.51;53.52
49943;BME280;36011;53.362;58.948;2023-01-01T05:25:12;97752.13;;;-15.34;53.33
49943;BME280;36011;53.362;58.948;2023-01-01T05:28:13;97760.63;;;-15.16;53.35
49943;BME280;36011;53.362;58.948;2023-01-01T05:31:16;97756.31;;;-15.01;53.29
49943;BME280;36011;53.362;58.948;2023-01-01T05:34:19;97753.72;;;-14.84;52.86
49943;BME280;36011;53.362;58.948;2023-01-01T05:37:22;97742.47;;;-14.73;52.56
49943;BME280;36011;53.362;58.948;2023-01-01T05:40:26;97735.97;;;-14.68;52.60
49943;BME280;36011;53.362;58.948;2023-01-01T05:43:29;97733.06;;;-14.58;52.28
49943;BME280;36011;53.362;58.948;2023-01-01T05:46:35;97730.84;;;-14.52;52.44
49943;BME280;36011;53.362;58.948;2023-01-01T05:49:37;97731.38;;;-14.39;52.06
49943;BME280;36011;53.362;58.948;2023-01-01T05:52:39;97732.00;;;-14.26;52.03
49943;BME280;36011;53.362;58.948;2023-01-01T05:55:43;97730.09;;;-14.12;52.25
49943;BME280;36011;53.362;58.948;2023-01-01T05:58:47;97729.91;;;-13.97;51.90
49943;BME280;36011;53.362;58.948;2023-01-01T06:01:54;97736.50;;;-14.00;51.45
49943;BME280;36011;53.362;58.948;2023-01-01T06:04:57;97734.09;;;-13.97;51.77
49943;BME280;36011;53.362;58.948;2023-01-01T06:08:08;97732.91;;;-13.86;51.58
49943;BME280;36011;53.362;58.948;2023-01-01T06:11:11;97729.94;;;-13.76;51.38
49943;BME280;36011;53.362;58.948;2023-01-01T06:14:14;97732.09;;;-13.66;51.70
49943;BME280;36011;53.362;58.948;2023-01-01T06:17:18;97736.06;;;-13.51;51.33
49943;BME280;36011;53.362;58.948;2023-01-01T06:20:19;97743.28;;;-13.41;51.55
49943;BME280;36011;53.362;58.948;2023-01-01T06:23:24;97738.72;;;-13.29;51.18
49943;BME280;36011;53.362;58.948;2023-01-01T06:26:28;97739.16;;;-13.17;50.74
49943;BME280;36011;53.362;58.948;2023-01-01T06:29:32;97731.09;;;-13.08;50.93
49943;BME280;36011;53.362;58.948;2023-01-01T06:32:37;97741.16;;;-13.09;50.51
49943;BME280;36011;53.362;58.948;2023-01-01T06:35:41;97730.53;;;-13.01;50.78
49943;BME280;36011;53.362;58.948;2023-01-01T06:38:51;97721.13;;;-12.82;50.33
49943;BME280;36011;53.362;58.948;2023-01-01T06:41:55;97726.19;;;-12.61;50.03
49943;BME280;36011;53.362;58.948;2023-01-01T06:44:56;97725.75;;;-12.29;50.21
49943;BME280;36011;53.362;58.948;2023-01-01T06:47:57;97726.88;;;-11.98;49.77
49943;BME280;36011;53.362;58.948;2023-01-01T06:51:03;97719.19;;;-11.76;49.34
49943;BME280;36011;53.362;58.948;2023-01-01T06:54:07;97723.53;;;-11.49;48.93
49943;BME280;36011;53.362;58.948;2023-01-01T06:57:16;97726.31;;;-11.17;48.74
49943;BME280;36011;53.362;58.948;2023-01-01T07:00:17;97715.41;;;-10.88;48.38
49943;BME280;36011;53.362;58.948;2023-01-01T07:03:21;97714.66;;;-10.58;47.76
49943;BME280;36011;53.362;58.948;2023-01-01T07:06:25;97717.13;;;-10.32;47.54
49943;BME280;36011;53.362;58.948;2023-01-01T07:09:28;97720.34;;;-10.08;47.36
49943;BME280;36011;53.362;58.948;2023-01-01T07:12:31;97702.22;;;-9.90;47.10
49943;BME280;36011;53.362;58.948;2023-01-01T07:15:35;97705.25;;;-9.73;46.86
49943;BME280;36011;53.362;58.948;2023-01-01T07:18:38;97704.78;;;-9.58;46.84
49943;BME280;36011;53.362;58.948;2023-01-01T07:21:43;97706.72;;;-9.50;46.76
49943;BME280;36011;53.362;58.948;2023-01-01T07:24:46;97700.88;;;-9.45;46.66
49943;BME280;36011;53.362;58.948;2023-01-01T07:27:52;97700.28;;;-9.37;46.41
49943;BME280;36011;53.362;58.948;2023-01-01T07:30:57;97699.47;;;-9.34;46.72
49943;BME280;36011;53.362;58.948;2023-01-01T07:34:02;97699.47;;;-9.34;46.81
49943;BME280;36011;53.362;58.948;2023-01-01T07:37:03;97688.28;;;-9.41;46.99
49943;BME280;36011;53.362;58.948;2023-01-01T07:40:04;97690.81;;;-9.41;46.45
49943;BME280;36011;53.362;58.948;2023-01-01T07:43:08;97691.69;;;-9.40;46.86
49943;BME280;36011;53.362;58.948;2023-01-01T07:46:12;97698.47;;;-9.41;47.40
49943;BME280;36011;53.362;58.948;2023-01-01T07:49:16;97692.91;;;-9.59;47.52
49943;BME280;36011;53.362;58.948;2023-01-01T07:52:18;97690.34;;;-9.89;47.59
49943;BME280;36011;53.362;58.948;2023-01-01T07:55:19;97685.03;;;-9.97;47.60
49943;BME280;36011;53.362;58.948;2023-01-01T07:58:28;97672.69;;;-10.13;47.42
49943;BME280;36011;53.362;58.948;2023-01-01T08:01:29;97673.19;;;-10.25;48.17
49943;BME280;36011;53.362;58.948;2023-01-01T08:04:32;97672.22;;;-10.30;47.42
49943;BME280;36011;53.362;58.948;2023-01-01T08:07:38;97674.66;;;-10.35;48.28
49943;BME280;36011;53.362;58.948;2023-01-01T08:10:44;97672.78;;;-10.69;47.93
49943;BME280;36011;53.362;58.948;2023-01-01T08:13:45;97667.66;;;-10.98;48.25
49943;BME280;36011;53.362;58.948;2023-01-01T08:16:49;97664.41;;;-11.19;48.54
49943;BME280;36011;53.362;58.948;2023-01-01T08:19:50;97656.19;;;-11.38;48.91
49943;BME280;36011;53.362;58.948;2023-01-01T08:22:52;97648.97;;;-11.51;49.21
49943;BME280;36011;53.362;58.948;2023-01-01T08:25:57;97643.47;;;-11.63;49.00
49943;BME280;36011;53.362;58.948;2023-01-01T08:28:58;97632.59;;;-11.85;49.15
49943;BME280;36011;53.362;58.948;2023-01-01T08:32:01;97634.56;;;-12.02;49.18
49943;BME280;36011;53.362;58.948;2023-01-01T08:35:03;97623.00;;;-12.17;49.48
49943;BME280;36011;53.362;58.948;2023-01-01T08:38:04;97617.72;;;-12.24;49.40
49943;BME280;36011;53.362;58.948;2023-01-01T08:41:05;97615.06;;;-12.27;49.30
49943;BME280;36011;53.362;58.948;2023-01-01T08:44:08;97611.50;;;-12.32;48.87
49943;BME280;36011;53.362;58.948;2023-01-01T08:47:16;97607.03;;;-12.39;48.93
49943;BME280;36011;53.362;58.948;2023-01-01T08:50:20;97603.78;;;-12.35;48.97
49943;BME280;36011;53.362;58.948;2023-01-01T08:53:24;97607.78;;;-12.17;48.84
49943;BME280;36011;53.362;58.948;2023-01-01T08:56:26;97601.53;;;-12.03;48.14
49943;BME280;36011;53.362;58.948;2023-01-01T08:59:29;97598.59;;;-11.90;48.44
49943;BME280;36011;53.362;58.948;2023-01-01T09:02:30;97606.19;;;-11.64;47.97
49943;BME280;36011;53.362;58.948;2023-01-01T09:05:31;97606.63;;;-11.25;47.77
49943;BME280;36011;53.362;58.948;2023-01-01T09:08:37;97602.94;;;-11.08;47.24
49943;BME280;36011;53.362;58.948;2023-01-01T09:11:38;97587.94;;;-11.00;47.03
49943;BME280;36011;53.362;58.948;2023-01-01T09:14:39;97591.97;;;-11.06;47.30
49943;BME280;36011;53.362;58.948;2023-01-01T09:17:42;97596.84;;;-11.13;47.41
49943;BME280;36011;53.362;58.948;2023-01-01T09:20:43;97591.25;;;-11.30;47.48
49943;BME280;36011;53.362;58.948;2023-01-01T09:23:46;97586.22;;;-11.28;47.26
49943;BME280;36011;53.362;58.948;2023-01-01T09:26:52;97582.94;;;-11.24;47.40
49943;BME280;36011;53.362;58.948;2023-01-01T09:29:53;97580.81;;;-11.12;47.39
49943;BME280;36011;53.362;58.948;2023-01-01T09:32:56;97581.16;;;-11.01;46.94
49943;BME280;36011;53.362;58.948;2023-01-01T09:39:19;97588.25;;;-11.18;46.97
49943;BME280;36011;53.362;58.948;2023-01-01T09:42:30;97585.06;;;-11.38;46.91
49943;BME280;36011;53.362;58.948;2023-01-01T09:45:57;97575.94;;;-11.58;47.62
49943;BME280;36011;53.362;58.948;2023-01-01T09:49:24;97568.31;;;-11.84;47.61
49943;BME280;36011;53.362;58.948;2023-01-01T09:52:21;97565.50;;;-11.93;48.30
49943;BME280;36011;53.362;58.948;2023-01-01T09:55:42;97561.19;;;-11.95;47.43
49943;BME280;36011;53.362;58.948;2023-01-01T09:58:46;97556.00;;;-12.24;47.17
49943;BME280;36011;53.362;58.948;2023-01-01T10:02:03;97552.75;;;-12.44;47.95
49943;BME280;36011;53.362;58.948;2023-01-01T10:14:44;97533.34;;;-12.19;47.46
49943;BME280;36011;53.362;58.948;2023-01-01T10:17:54;97538.31;;;-12.23;47.08
49943;BME280;36011;53.362;58.948;2023-01-01T10:20:58;97541.31;;;-12.33;47.70
49943;BME280;36011;53.362;58.948;2023-01-01T10:27:57;97555.13;;;-12.25;47.72
49943;BME280;36011;53.362;58.948;2023-01-01T10:30:50;97554.63;;;-12.14;47.65
49943;BME280;36011;53.362;58.948;2023-01-01T10:33:55;97543.59;;;-12.16;47.64
49943;BME280;36011;53.362;58.948;2023-01-01T10:36:59;97550.16;;;-12.22;47.74
49943;BME280;36011;53.362;58.948;2023-01-01T10:40:02;97543.19;;;-12.27;47.80
49943;BME280;36011;53.362;58.948;2023-01-01T10:43:08;97535.19;;;-12.39;48.18
49943;BME280;36011;53.362;58.948;2023-01-01T10:46:14;97533.75;;;-12.55;47.98
49943;BME280;36011;53.362;58.948;2023-01-01T10:49:17;97526.47;;;-12.70;48.52
49943;BME280;36011;53.362;58.948;2023-01-01T10:52:18;97523.69;;;-13.00;48.39
49943;BME280;36011;53.362;58.948;2023-01-01T10:55:24;97532.81;;;-13.28;48.92
49943;BME280;36011;53.362;58.948;2023-01-01T11:01:40;97535.41;;;-13.47;49.30
49943;BME280;36011;53.362;58.948;2023-01-01T11:04:46;97532.53;;;-13.57;49.20
49943;BME280;36011;53.362;58.948;2023-01-01T11:07:47;97520.38;;;-13.65;49.31
49943;BME280;36011;53.362;58.948;2023-01-01T11:10:52;97524.59;;;-13.66;49.68
49943;BME280;36011;53.362;58.948;2023-01-01T11:13:54;97519.09;;;-13.76;49.52
49943;BME280;36011;53.362;58.948;2023-01-01T11:16:58;97523.72;;;-13.87;49.54
49943;BME280;36011;53.362;58.948;2023-01-01T11:20:02;97520.63;;;-14.01;50.03
49943;BME280;36011;53.362;58.948;2023-01-01T11:26:24;97529.75;;;-14.05;50.17
49943;BME280;36011;53.362;58.948;2023-01-01T11:29:30;97514.59;;;-14.05;50.48
49943;BME280;36011;53.362;58.948;2023-01-01T11:32:33;97522.88;;;-14.09;50.44
49943;BME280;36011;53.362;58.948;2023-01-01T11:35:45;97520.75;;;-14.19;50.17
49943;BME280;36011;53.362;58.948;2023-01-01T11:38:51;97513.97;;;-14.20;50.43
49943;BME280;36011;53.362;58.948;2023-01-01T11:42:06;97511.13;;;-14.28;50.57
49943;BME280;36011;53.362;58.948;2023-01-01T11:45:14;97503.22;;;-14.35;50.67
49943;BME280;36011;53.362;58.948;2023-01-01T11:48:24;97499.38;;;-14.47;50.76
49943;BME280;36011;53.362;58.948;2023-01-01T11:51:28;97491.53;;;-14.54;50.59
49943;BME280;36011;53.362;58.948;2023-01-01T11:54:30;97486.06;;;-14.63;50.74
49943;BME280;36011;53.362;58.948;2023-01-01T11:57:39;97497.53;;;-14.72;50.90
49943;BME280;36011;53.362;58.948;2023-01-01T12:00:46;97485.19;;;-14.83;50.83
49943;BME280;36011;53.362;58.948;2023-01-01T12:04:01;97480.69;;;-14.90;51.11
49943;BME280;36011;53.362;58.948;2023-01-01T12:07:08;97478.44;;;-15.04;51.18
49943;BME280;36011;53.362;58.948;2023-01-01T12:10:24;97490.09;;;-15.06;51.30
49943;BME280;36011;53.362;58.948;2023-01-01T12:13:32;97480.19;;;-15.03;51.25
49943;BME280;36011;53.362;58.948;2023-01-01T12:16:46;97478.44;;;-15.04;51.16
49943;BME280;36011;53.362;58.948;2023-01-01T12:22:56;97478.66;;;-15.17;51.30
49943;BME280;36011;53.362;58.948;2023-01-01T12:29:24;97486.06;;;-15.22;51.19
49943;BME280;36011;53.362;58.948;2023-01-01T12:35:52;97484.41;;;-15.21;51.17
49943;BME280;36011;53.362;58.948;2023-01-01T12:45:25;97487.19;;;-15.52;52.05
49943;BME280;36011;53.362;58.948;2023-01-01T12:51:44;97499.59;;;-15.57;51.89
49943;BME280;36011;53.362;58.948;2023-01-01T13:01:20;97480.25;;;-15.39;51.88
49943;BME280;36011;53.362;58.948;2023-01-01T13:04:25;97495.25;;;-15.42;51.59
49943;BME280;36011;53.362;58.948;2023-01-01T13:07:29;97482.66;;;-15.42;51.98
49943;BME280;36011;53.362;58.948;2023-01-01T13:10:37;97481.91;;;-15.39;51.83
49943;BME280;36011;53.362;58.948;2023-01-01T13:13:41;97470.44;;;-15.32;51.60
49943;BME280;36011;53.362;58.948;2023-01-01T13:16:49;97476.41;;;-15.30;51.76
49943;BME280;36011;53.362;58.948;2023-01-01T13:26:34;97474.13;;;-15.44;51.87
49943;BME280;36011;53.362;58.948;2023-01-01T13:29:41;97466.44;;;-15.47;51.60
49943;BME280;36011;53.362;58.948;2023-01-01T13:33:30;97466.28;;;-15.50;52.11
49943;BME280;36011;53.362;58.948;2023-01-01T13:39:21;97470.03;;;-15.42;51.95
49943;BME280;36011;53.362;58.948;2023-01-01T13:45:57;97446.19;;;-15.29;51.74
49943;BME280;36011;53.362;58.948;2023-01-01T14:05:13;97426.31;;;-15.41;52.01
49943;BME280;36011;53.362;58.948;2023-01-01T14:11:32;97417.41;;;-15.52;52.26
49943;BME280;36011;53.362;58.948;2023-01-01T14:14:36;97419.94;;;-15.52;52.48
49943;BME280;36011;53.362;58.948;2023-01-01T14:17:39;97405.63;;;-15.53;52.16
49943;BME280;36011;53.362;58.948;2023-01-01T14:20:42;97412.38;;;-15.52;52.62
49943;BME280;36011;53.362;58.948;2023-01-01T14:23:50;97409.78;;;-15.53;52.50
49943;BME280;36011;53.362;58.948;2023-01-01T14:26:53;97416.47;;;-15.54;52.70
49943;BME280;36011;53.362;58.948;2023-01-01T14:29:54;97417.38;;;-15.53;52.63
49943;BME280;36011;53.362;58.948;2023-01-01T14:32:58;97413.94;;;-15.54;52.49
49943;BME280;36011;53.362;58.948;2023-01-01T14:36:05;97415.47;;;-15.57;52.76
49943;BME280;36011;53.362;58.948;2023-01-01T14:39:30;97402.00;;;-15.58;52.52
49943;BME280;36011;53.362;58.948;2023-01-01T14:42:33;97406.38;;;-15.54;52.67
49943;BME280;36011;53.362;58.948;2023-01-01T14:45:41;97404.94;;;-15.49;52.66
49943;BME280;36011;53.362;58.948;2023-01-01T14:48:49;97408.03;;;-15.36;52.55
49943;BME280;36011;53.362;58.948;2023-01-01T14:52:00;97405.91;;;-15.27;52.44
49943;BME280;36011;53.362;58.948;2023-01-01T14:55:07;97392.59;;;-15.23;52.26
49943;BME280;36011;53.362;58.948;2023-01-01T14:58:22;97402.16;;;-15.16;52.36
49943;BME280;36011;53.362;58.948;2023-01-01T15:01:25;97390.53;;;-15.12;52.19
49943;BME280;36011;53.362;58.948;2023-01-01T15:04:30;97384.84;;;-15.08;52.50
49943;BME280;36011;53.362;58.948;2023-01-01T15:07:31;97381.56;;;-15.06;52.36
49943;BME280;36011;53.362;58.948;2023-01-01T15:10:36;97372.00;;;-15.13;52.34
49943;BME280;36011;53.362;58.948;2023-01-01T15:14:44;97355.16;;;-15.14;52.46
49943;BME280;36011;53.362;58.948;2023-01-01T15:17:17;97364.97;;;-15.20;52.70
49943;BME280;36011;53.362;58.948;2023-01-01T15:20:21;97371.50;;;-15.25;52.72
49943;BME280;36011;53.362;58.948;2023-01-01T15:23:27;97362.78;;;-15.32;52.69
49943;BME280;36011;53.362;58.948;2023-01-01T15:29:44;97347.03;;;-15.46;53.16
49943;BME280;36011;53.362;58.948;2023-01-01T15:32:45;97360.47;;;-15.47;53.20
49943;BME280;36011;53.362;58.948;2023-01-01T15:35:46;97363.00;;;-15.47;53.14
49943;BME280;36011;53.362;58.948;2023-01-01T15:38:51;97362.47;;;-15.40;53.35
49943;BME280;36011;53.362;58.948;2023-01-01T15:41:53;97362.47;;;-15.40;53.02
49943;BME280;36011;53.362;58.948;2023-01-01T15:44:54;97345.84;;;-15.34;53.14
49943;BME280;36011;53.362;58.948;2023-01-01T15:51:10;97343.88;;;-15.42;53.11
49943;BME280;36011;53.362;58.948;2023-01-01T15:54:15;97344.94;;;-15.36;53.15
49943;BME280;36011;53.362;58.948;2023-01-01T15:57:21;97340.44;;;-15.23;53.34
49943;BME280;36011;53.362;58.948;2023-01-01T16:00:24;97333.22;;;-15.15;53.07
49943;BME280;36011;53.362;58.948;2023-01-01T16:03:28;97338.63;;;-15.06;52.73
49943;BME280;36011;53.362;58.948;2023-01-01T16:06:32;97348.81;;;-15.04;52.63
49943;BME280;36011;53.362;58.948;2023-01-01T16:09:34;97357.13;;;-15.07;52.76
49943;BME280;36011;53.362;58.948;2023-01-01T16:12:36;97355.41;;;-15.08;53.11
49943;BME280;36011;53.362;58.948;2023-01-01T16:15:47;97361.44;;;-15.04;53.14
49943;BME280;36011;53.362;58.948;2023-01-01T16:18:48;97350.72;;;-14.99;52.83
49943;BME280;36011;53.362;58.948;2023-01-01T16:21:49;97350.09;;;-15.14;53.19
49943;BME280;36011;53.362;58.948;2023-01-01T16:24:54;97352.91;;;-15.27;53.28
49943;BME280;36011;53.362;58.948;2023-01-01T16:27:56;97341.81;;;-15.31;53.17
49943;BME280;36011;53.362;58.948;2023-01-01T16:30:59;97332.72;;;-15.27;53.52
49943;BME280;36011;53.362;58.948;2023-01-01T16:34:03;97327.72;;;-15.26;53.25
49943;BME280;36011;53.362;58.948;2023-01-01T16:37:05;97329.50;;;-15.23;53.23
49943;BME280;36011;53.362;58.948;2023-01-01T16:40:08;97335.47;;;-15.21;53.29
49943;BME280;36011;53.362;58.948;2023-01-01T16:43:14;97329.03;;;-15.14;53.01
49943;BME280;36011;53.362;58.948;2023-01-01T16:46:15;97323.00;;;-15.18;53.12
49943;BME280;36011;53.362;58.948;2023-01-01T16:49:16;97323.00;;;-15.18;53.16
49943;BME280;36011;53.362;58.948;2023-01-01T16:52:17;97311.44;;;-15.13;53.05
49943;BME280;36011;53.362;58.948;2023-01-01T16:55:18;97292.59;;;-15.21;53.58
49943;BME280;36011;53.362;58.948;2023-01-01T16:58:22;97295.63;;;-15.28;53.43
49943;BME280;36011;53.362;58.948;2023-01-01T17:01:25;97295.38;;;-15.34;53.25
49943;BME280;36011;53.362;58.948;2023-01-01T17:04:26;97290.22;;;-15.38;53.70
49943;BME280;36011;53.362;58.948;2023-01-01T17:07:30;97295.03;;;-15.23;53.67
49943;BME280;36011;53.362;58.948;2023-01-01T17:10:31;97296.03;;;-15.19;53.56
49943;BME280;36011;53.362;58.948;2023-01-01T17:13:33;97280.09;;;-15.18;53.49
49943;BME280;36011;53.362;58.948;2023-01-01T17:16:37;97274.44;;;-15.12;53.26
49943;BME280;36011;53.362;58.948;2023-01-01T17:19:40;97278.63;;;-15.13;53.42
49943;BME280;36011;53.362;58.948;2023-01-01T17:22:41;97279.88;;;-15.23;53.33
49943;BME280;36011;53.362;58.948;2023-01-01T17:25:46;97272.25;;;-15.24;53.76
49943;BME280;36011;53.362;58.948;2023-01-01T17:28:48;97278.91;;;-15.26;53.61
49943;BME280;36011;53.362;58.948;2023-01-01T17:31:52;97270.41;;;-15.28;53.52
49943;BME280;36011;53.362;58.948;2023-01-01T17:34:56;97257.00;;;-15.27;53.91
49943;BME280;36011;53.362;58.948;2023-01-01T17:37:59;97240.06;;;-15.30;53.86
49943;BME280;36011;53.362;58.948;2023-01-01T17:41:07;97230.03;;;-15.28;53.69
49943;BME280;36011;53.362;58.948;2023-01-01T17:44:09;97240.13;;;-15.28;53.87
49943;BME280;36011;53.362;58.948;2023-01-01T17:47:10;97250.44;;;-15.43;54.61
49943;BME280;36011;53.362;58.948;2023-01-01T17:50:14;97247.78;;;-15.46;54.19
49943;BME280;36011;53.362;58.948;2023-01-01T17:53:18;97244.91;;;-15.34;54.08
49943;BME280;36011;53.362;58.948;2023-01-01T17:56:20;97230.72;;;-15.32;53.95